Time;durP1;ratioP1;P1;durP2;ratioP2;P2;SDS_P1;SDS_P2;PMS_P1;PMS_P2;Temp;Humidity;BMP_temperature;BMP_pressure;BME280_temperature;BME280_humidity;BME280_pressure;Samples;Min_cycle;Max_cycle;Signal;HPM_P1;HPM_P2
2024/04/08 00:00:31;;;;;;;10.80;5.40;;;;;;;;;;103738;1291;544844;-70
2024/04/08 00:04:08;;;;;;;11.30;5.80;;;;;;;;;;104009;1288;545079;-72
2024/04/08 00:07:45;;;;;;;15.60;5.70;;;;;;;;;;103587;1291;544940;-70
2024/04/08 00:11:23;;;;;;;10.00;5.30;;;;;;;;;;103728;1291;545152;-69
2024/04/08 00:15:00;;;;;;;9.10;5.00;;;;;;;;;;103799;1289;545005;-73
2024/04/08 00:18:39;;;;;;;11.40;5.80;;;;;;;;;;103774;1294;544719;-74
2024/04/08 00:22:15;;;;;;;13.40;6.10;;;;;;;;;;103627;1292;544846;-70
2024/04/08 00:25:53;;;;;;;11.40;5.80;;;;;;;;;;103768;1289;545350;-69
2024/04/08 00:29:30;;;;;;;12.10;5.90;;;;;;;;;;103991;1288;545126;-71
2024/04/08 00:33:08;;;;;;;12.10;5.80;;;;;;;;;;103570;1292;546125;-70
2024/04/08 00:36:45;;;;;;;10.50;5.50;;;;;;;;;;103644;1292;546153;-76
2024/04/08 00:40:23;;;;;;;10.60;5.00;;;;;;;;;;103791;1291;545451;-70
2024/04/08 00:43:56;;;;;;;9.30;5.30;;;;;;;;;;103695;1292;544957;-70
2024/04/08 00:47:38;;;;;;;8.70;4.80;;;;;;;;;;103651;1289;544916;-69
2024/04/08 00:51:14;;;;;;;9.80;4.90;;;;;;;;;;104274;1282;545432;-69
2024/04/08 00:54:53;;;;;;;10.40;4.80;;;;;;;;;;103687;1292;544920;-70
2024/04/08 00:58:31;;;;;;;12.30;5.30;;;;;;;;;;103605;1292;544885;-72
2024/04/08 01:02:08;;;;;;;9.90;5.00;;;;;;;;;;103829;1292;544878;-70
2024/04/08 01:05:49;;;;;;;10.90;4.60;;;;;;;;;;103703;1295;544959;-70
2024/04/08 01:09:22;;;;;;;9.90;5.00;;;;;;;;;;103675;1289;545550;-69
2024/04/08 01:13:00;;;;;;;9.30;4.40;;;;;;;;;;103649;1295;545512;-69
2024/04/08 01:16:37;;;;;;;10.70;5.60;;;;;;;;;;103626;1291;544926;-70
2024/04/08 01:20:15;;;;;;;9.30;5.10;;;;;;;;;;103601;1291;545315;-72
2024/04/08 01:23:53;;;;;;;10.70;5.00;;;;;;;;;;103603;1291;545612;-72
2024/04/08 01:27:30;;;;;;;9.70;5.20;;;;;;;;;;103981;1290;545097;-70
2024/04/08 01:31:07;;;;;;;9.60;5.30;;;;;;;;;;103801;1289;544927;-71
2024/04/08 01:34:45;;;;;;;11.50;5.00;;;;;;;;;;103799;1289;545017;-69
2024/04/08 01:38:23;;;;;;;10.40;5.00;;;;;;;;;;103592;1293;545667;-71
2024/04/08 01:42:00;;;;;;;9.30;4.40;;;;;;;;;;103839;1288;545054;-73
2024/04/08 01:45:38;;;;;;;9.10;4.40;;;;;;;;;;103682;1292;545044;-70
2024/04/08 01:49:15;;;;;;;9.10;4.30;;;;;;;;;;103762;1288;545559;-70
2024/04/08 01:52:48;;;;;;;9.40;4.80;;;;;;;;;;103786;1294;545515;-74
2024/04/08 01:56:29;;;;;;;7.80;4.70;;;;;;;;;;104230;1282;545771;-68
2024/04/08 02:00:07;;;;;;;9.00;4.70;;;;;;;;;;103729;1288;545722;-69
2024/04/08 02:03:50;;;;;;;7.70;3.80;;;;;;;;;;103874;1288;548310;-77
2024/04/08 02:07:22;;;;;;;8.20;4.20;;;;;;;;;;103792;1289;545069;-70
2024/04/08 02:11:00;;;;;;;8.80;4.00;;;;;;;;;;103647;1292;545266;-69
2024/04/08 02:14:37;;;;;;;12.70;4.20;;;;;;;;;;103572;1295;546384;-71
2024/04/08 02:18:15;;;;;;;17.00;4.50;;;;;;;;;;104328;1286;544843;-76
2024/04/08 02:21:52;;;;;;;27.60;5.40;;;;;;;;;;103618;1290;545503;-76
2024/04/08 02:25:25;;;;;;;12.70;4.20;;;;;;;;;;103813;1289;544992;-69
2024/04/08 02:29:07;;;;;;;9.90;4.00;;;;;;;;;;103621;1291;545001;-69
2024/04/08 02:32:45;;;;;;;9.40;3.80;;;;;;;;;;103745;1289;544721;-70
2024/04/08 02:36:22;;;;;;;27.20;5.30;;;;;;;;;;103782;1290;546060;-69
2024/04/08 02:40:04;;;;;;;13.20;3.70;;;;;;;;;;103769;1293;545047;-70
2024/04/08 02:43:33;;;;;;;9.50;3.50;;;;;;;;;;103648;1290;545682;-69
2024/04/08 02:47:14;;;;;;;7.80;3.40;;;;;;;;;;103762;1294;545485;-75
2024/04/08 02:50:52;;;;;;;10.30;3.60;;;;;;;;;;103859;1289;544726;-69
2024/04/08 02:54:30;;;;;;;8.90;3.90;;;;;;;;;;103546;1291;545787;-76
2024/04/08 02:58:07;;;;;;;9.10;3.70;;;;;;;;;;103686;1294;545176;-71
2024/04/08 03:01:47;;;;;;;13.90;4.00;;;;;;;;;;103592;1292;545028;-70
2024/04/08 03:05:26;;;;;;;23.40;4.40;;;;;;;;;;103724;1291;544907;-73
2024/04/08 03:08:59;;;;;;;9.60;4.20;;;;;;;;;;103684;1295;545254;-70
2024/04/08 03:12:36;;;;;;;11.10;4.70;;;;;;;;;;103791;1289;545146;-69
2024/04/08 03:16:14;;;;;;;13.50;6.50;;;;;;;;;;103752;1290;544952;-69
2024/04/08 03:19:55;;;;;;;9.50;5.20;;;;;;;;;;104177;1288;544777;-69
2024/04/08 03:23:29;;;;;;;11.10;4.80;;;;;;;;;;103625;1295;545544;-70
2024/04/08 03:27:07;;;;;;;8.50;3.70;;;;;;;;;;103602;1292;545893;-72
2024/04/08 03:30:44;;;;;;;8.60;3.40;;;;;;;;;;104579;1282;544843;-74
2024/04/08 03:34:22;;;;;;;10.10;3.90;;;;;;;;;;103592;1295;546413;-77
2024/04/08 03:37:59;;;;;;;9.00;3.90;;;;;;;;;;103635;1291;544938;-68
2024/04/08 03:41:36;;;;;;;10.50;5.10;;;;;;;;;;103666;1292;545658;-70
2024/04/08 03:45:14;;;;;;;11.40;5.40;;;;;;;;;;104074;1298;545448;-70
2024/04/08 03:48:51;;;;;;;15.70;9.50;;;;;;;;;;103796;1289;545547;-70
2024/04/08 03:52:29;;;;;;;16.30;8.10;;;;;;;;;;103857;1292;545008;-70
2024/04/08 03:56:08;;;;;;;14.90;6.90;;;;;;;;;;103601;1292;544853;-76
2024/04/08 03:59:45;;;;;;;12.30;5.50;;;;;;;;;;103563;1292;544857;-73
2024/04/08 04:03:22;;;;;;;9.20;4.90;;;;;;;;;;103601;1291;545905;-72
2024/04/08 04:06:59;;;;;;;10.50;4.70;;;;;;;;;;103511;1305;545023;-76
2024/04/08 04:10:37;;;;;;;15.80;5.10;;;;;;;;;;103688;1290;545053;-71
2024/04/08 04:14:14;;;;;;;17.80;4.80;;;;;;;;;;104117;1285;544844;-73
2024/04/08 04:17:52;;;;;;;13.50;3.80;;;;;;;;;;103700;1289;545388;-74
2024/04/08 04:21:28;;;;;;;10.80;4.20;;;;;;;;;;103747;1295;545113;-71
2024/04/08 04:25:10;;;;;;;9.20;3.70;;;;;;;;;;103727;1289;545650;-72
2024/04/08 04:28:44;;;;;;;14.80;4.30;;;;;;;;;;103684;1293;544984;-77
2024/04/08 04:32:21;;;;;;;9.00;3.50;;;;;;;;;;103619;1300;545589;-69
2024/04/08 04:35:55;;;;;;;10.60;3.50;;;;;;;;;;103717;1290;545748;-74
2024/04/08 04:39:37;;;;;;;10.40;3.10;;;;;;;;;;103758;1289;544715;-77
2024/04/08 04:43:13;;;;;;;7.90;3.20;;;;;;;;;;103535;1291;545817;-71
2024/04/08 04:46:54;;;;;;;5.90;2.40;;;;;;;;;;103693;1292;544977;-70
2024/04/08 04:50:25;;;;;;;15.70;3.60;;;;;;;;;;103800;1292;545625;-72
2024/04/08 04:54:06;;;;;;;17.80;3.70;;;;;;;;;;103788;1289;545083;-72
2024/04/08 04:57:44;;;;;;;10.60;3.70;;;;;;;;;;103784;1292;544722;-73
2024/04/08 05:01:22;;;;;;;13.60;3.50;;;;;;;;;;103778;1289;544940;-71
2024/04/08 05:04:55;;;;;;;13.30;3.50;;;;;;;;;;103756;1289;544777;-70
2024/04/08 05:08:39;;;;;;;24.20;4.90;;;;;;;;;;103724;1289;544791;-75
2024/04/08 05:12:14;;;;;;;20.40;4.30;;;;;;;;;;103709;1295;545161;-69
2024/04/08 05:15:59;;;;;;;17.90;3.90;;;;;;;;;;103780;1292;545492;-70
2024/04/08 05:19:28;;;;;;;10.60;3.30;;;;;;;;;;104309;1282;545850;-69
2024/04/08 05:23:11;;;;;;;10.40;3.50;;;;;;;;;;104732;1278;544803;-69
2024/04/08 05:26:44;;;;;;;12.50;3.70;;;;;;;;;;103822;1290;544945;-71
2024/04/08 05:30:22;;;;;;;16.40;3.70;;;;;;;;;;103761;1292;545727;-70
2024/04/08 05:33:58;;;;;;;11.00;3.40;;;;;;;;;;103851;1292;544917;-70
2024/04/08 05:37:38;;;;;;;9.20;3.10;;;;;;;;;;104314;1286;544973;-72
2024/04/08 05:41:13;;;;;;;8.00;2.80;;;;;;;;;;103799;1289;544572;-75
2024/04/08 05:44:52;;;;;;;11.00;2.80;;;;;;;;;;103759;1289;545925;-74
2024/04/08 05:48:29;;;;;;;9.20;2.70;;;;;;;;;;103690;1295;545785;-74
2024/04/08 05:52:06;;;;;;;7.10;2.90;;;;;;;;;;103929;1289;544956;-69
2024/04/08 05:55:40;;;;;;;11.70;2.60;;;;;;;;;;103996;1289;545056;-70
2024/04/08 05:59:21;;;;;;;9.70;2.80;;;;;;;;;;103608;1295;544968;-69
2024/04/08 06:02:59;;;;;;;7.80;2.80;;;;;;;;;;103624;1291;544970;-69
2024/04/08 06:06:36;;;;;;;11.40;2.60;;;;;;;;;;103787;1290;545370;-69
2024/04/08 06:10:14;;;;;;;10.00;2.70;;;;;;;;;;103570;1291;545403;-71
2024/04/08 06:13:51;;;;;;;12.80;3.20;;;;;;;;;;104026;1287;544923;-73
2024/04/08 06:17:24;;;;;;;11.50;3.30;;;;;;;;;;104335;1289;545467;-69
2024/04/08 06:21:06;;;;;;;8.90;2.90;;;;;;;;;;103811;1292;545466;-69
2024/04/08 06:24:44;;;;;;;8.50;2.70;;;;;;;;;;104481;1282;545561;-69
2024/04/08 06:28:22;;;;;;;6.10;2.20;;;;;;;;;;105083;1293;545715;-71
2024/04/08 06:31:59;;;;;;;9.20;3.00;;;;;;;;;;103710;1295;544773;-70
2024/04/08 06:35:36;;;;;;;10.20;2.90;;;;;;;;;;103480;1291;544892;-70
2024/04/08 06:39:13;;;;;;;7.60;2.80;;;;;;;;;;103585;1292;544912;-76
2024/04/08 06:42:51;;;;;;;8.30;2.70;;;;;;;;;;103743;1292;545109;-71
2024/04/08 06:46:28;;;;;;;13.70;3.40;;;;;;;;;;103690;1289;545763;-71
2024/04/08 06:50:25;;;;;;;12.70;2.60;;;;;;;;;;103666;1295;548079;-77
2024/04/08 06:53:43;;;;;;;10.70;2.40;;;;;;;;;;103661;1291;545470;-71
2024/04/08 06:57:21;;;;;;;8.40;2.50;;;;;;;;;;103609;1290;545007;-69
2024/04/08 07:00:58;;;;;;;10.30;3.40;;;;;;;;;;103793;1289;544732;-68
2024/04/08 07:04:32;;;;;;;11.40;2.80;;;;;;;;;;103645;1295;546413;-71
2024/04/08 07:08:16;;;;;;;14.40;2.80;;;;;;;;;;103884;1292;545736;-80
2024/04/08 07:11:51;;;;;;;10.00;2.80;;;;;;;;;;103577;1289;545609;-72
2024/04/08 07:15:28;;;;;;;8.40;2.60;;;;;;;;;;103619;1291;546857;-71
2024/04/08 07:19:07;;;;;;;9.50;2.40;;;;;;;;;;103659;1292;545310;-69
2024/04/08 07:22:43;;;;;;;18.80;2.80;;;;;;;;;;103578;1291;545634;-72
2024/04/08 07:26:21;;;;;;;16.20;2.60;;;;;;;;;;103703;1294;544958;-71
2024/04/08 07:29:59;;;;;;;18.60;2.80;;;;;;;;;;103610;1294;545249;-70
2024/04/08 07:33:36;;;;;;;25.40;3.00;;;;;;;;;;103674;1295;545125;-69
2024/04/08 07:37:09;;;;;;;32.60;4.30;;;;;;;;;;103808;1289;545184;-72
2024/04/08 07:40:51;;;;;;;41.50;4.70;;;;;;;;;;103791;1288;544884;-69
2024/04/08 07:44:29;;;;;;;23.30;3.10;;;;;;;;;;103630;1291;545695;-69
2024/04/08 07:48:06;;;;;;;21.30;2.90;;;;;;;;;;103895;1289;545881;-69
2024/04/08 07:51:43;;;;;;;36.80;3.90;;;;;;;;;;103719;1289;544856;-70
2024/04/08 07:55:21;;;;;;;25.60;3.20;;;;;;;;;;103825;1295;545016;-69
2024/04/08 07:58:58;;;;;;;27.00;2.80;;;;;;;;;;103608;1292;545645;-68
2024/04/08 08:02:32;;;;;;;22.70;3.10;;;;;;;;;;103589;1292;545110;-66
2024/04/08 08:06:14;;;;;;;58.30;5.50;;;;;;;;;;103608;1290;544979;-68
2024/04/08 08:09:51;;;;;;;14.20;2.60;;;;;;;;;;103616;1291;546859;-69
2024/04/08 08:13:31;;;;;;;8.00;2.50;;;;;;;;;;103746;1294;545096;-72
2024/04/08 08:17:06;;;;;;;4.90;2.00;;;;;;;;;;103676;1302;544917;-69
2024/04/08 08:20:44;;;;;;;9.50;2.10;;;;;;;;;;103734;1289;545464;-70
2024/04/08 08:24:23;;;;;;;4.80;2.00;;;;;;;;;;103689;1292;545244;-70
2024/04/08 08:27:58;;;;;;;5.60;2.10;;;;;;;;;;103674;1292;544783;-69
2024/04/08 08:31:36;;;;;;;10.30;2.00;;;;;;;;;;103766;1290;545416;-71
2024/04/08 08:35:13;;;;;;;11.80;2.60;;;;;;;;;;103715;1290;545782;-71
2024/04/08 08:38:51;;;;;;;11.60;2.70;;;;;;;;;;103680;1290;547670;-73
2024/04/08 08:42:29;;;;;;;9.30;2.50;;;;;;;;;;103731;1302;544944;-69
2024/04/08 08:46:02;;;;;;;14.10;2.90;;;;;;;;;;103945;1295;546088;-71
2024/04/08 08:49:40;;;;;;;14.20;2.60;;;;;;;;;;103705;1290;544833;-68
2024/04/08 08:53:40;;;;;;;24.40;3.50;;;;;;;;;;103661;1296;548174;-71
2024/04/08 08:56:58;;;;;;;12.90;2.90;;;;;;;;;;103750;1289;545418;-72
2024/04/08 09:00:31;;;;;;;8.00;2.30;;;;;;;;;;103711;1292;545549;-70
2024/04/08 09:04:14;;;;;;;10.40;2.00;;;;;;;;;;104081;1285;545004;-68
2024/04/08 09:07:51;;;;;;;23.10;3.00;;;;;;;;;;103543;1291;545040;-69
2024/04/08 09:11:28;;;;;;;48.80;4.50;;;;;;;;;;103751;1289;545183;-71
2024/04/08 09:15:06;;;;;;;20.10;2.80;;;;;;;;;;103566;1297;545216;-71
2024/04/08 09:18:43;;;;;;;113.10;9.30;;;;;;;;;;103602;1295;544998;-73
2024/04/08 09:22:20;;;;;;;24.10;3.10;;;;;;;;;;103665;1289;544944;-69
2024/04/08 09:25:58;;;;;;;36.00;3.50;;;;;;;;;;103488;1295;545041;-69
2024/04/08 09:29:31;;;;;;;57.90;5.40;;;;;;;;;;103489;1291;545843;-70
2024/04/08 09:33:13;;;;;;;17.30;2.80;;;;;;;;;;103721;1292;545161;-73
2024/04/08 09:36:51;;;;;;;11.20;2.10;;;;;;;;;;103786;1289;544794;-71
2024/04/08 09:40:28;;;;;;;18.80;2.80;;;;;;;;;;103620;1291;545814;-69
2024/04/08 09:44:07;;;;;;;9.50;2.50;;;;;;;;;;103780;1289;545065;-71
2024/04/08 09:47:43;;;;;;;18.10;2.70;;;;;;;;;;103690;1303;545001;-70
2024/04/08 09:51:20;;;;;;;20.30;3.40;;;;;;;;;;103683;1292;545294;-69
2024/04/08 09:54:57;;;;;;;28.20;4.40;;;;;;;;;;104078;1289;544812;-73
2024/04/08 09:58:38;;;;;;;19.70;3.20;;;;;;;;;;103804;1290;545769;-69
2024/04/08 10:02:14;;;;;;;6.00;1.50;;;;;;;;;;103786;1289;544986;-74
2024/04/08 10:05:51;;;;;;;10.40;2.10;;;;;;;;;;103604;1291;545000;-72
2024/04/08 10:09:27;;;;;;;19.60;2.80;;;;;;;;;;104295;1289;544869;-69
2024/04/08 10:13:07;;;;;;;11.80;2.20;;;;;;;;;;103783;1291;545314;-74
2024/04/08 10:16:43;;;;;;;17.70;2.10;;;;;;;;;;104040;1286;544927;-71
2024/04/08 10:20:21;;;;;;;31.30;3.60;;;;;;;;;;103631;1292;546859;-72
2024/04/08 10:23:58;;;;;;;9.20;2.10;;;;;;;;;;104070;1289;545065;-71
2024/04/08 10:27:35;;;;;;;23.20;2.90;;;;;;;;;;103628;1291;545761;-69
2024/04/08 10:31:12;;;;;;;18.80;2.80;;;;;;;;;;103643;1295;544840;-68
2024/04/08 10:34:53;;;;;;;11.00;1.90;;;;;;;;;;103712;1292;545585;-74
2024/04/08 10:38:23;;;;;;;9.70;2.20;;;;;;;;;;103953;1293;545418;-71
2024/04/08 10:42:27;;;;;;;9.30;2.30;;;;;;;;;;103771;1292;545431;-77
2024/04/08 10:45:43;;;;;;;6.00;2.00;;;;;;;;;;103591;1292;545157;-70
2024/04/08 10:49:21;;;;;;;10.20;2.40;;;;;;;;;;103832;1290;544862;-69
2024/04/08 10:52:57;;;;;;;12.50;1.90;;;;;;;;;;104281;1283;545256;-71
2024/04/08 10:56:34;;;;;;;9.90;2.30;;;;;;;;;;103568;1291;545148;-70
2024/04/08 11:00:13;;;;;;;7.40;2.40;;;;;;;;;;103772;1303;544988;-72
2024/04/08 11:03:49;;;;;;;9.00;2.20;;;;;;;;;;103929;1288;545362;-74
2024/04/08 11:07:35;;;;;;;8.00;2.10;;;;;;;;;;103671;1297;545125;-72
2024/04/08 11:11:05;;;;;;;6.00;1.90;;;;;;;;;;103966;1290;545522;-71
2024/04/08 11:14:42;;;;;;;7.60;1.90;;;;;;;;;;103630;1291;545396;-71
2024/04/08 11:18:20;;;;;;;12.90;2.40;;;;;;;;;;104412;1283;544834;-72
2024/04/08 11:21:57;;;;;;;16.20;2.40;;;;;;;;;;103866;1289;545249;-71
2024/04/08 11:25:35;;;;;;;10.40;2.70;;;;;;;;;;103699;1294;545932;-70
2024/04/08 11:29:12;;;;;;;7.80;2.30;;;;;;;;;;103669;1292;545664;-70
2024/04/08 11:32:50;;;;;;;18.20;2.90;;;;;;;;;;104041;1290;546249;-69
2024/04/08 11:36:27;;;;;;;10.00;2.40;;;;;;;;;;103873;1294;545422;-70
2024/04/08 11:40:05;;;;;;;9.00;2.10;;;;;;;;;;103822;1289;545147;-72
2024/04/08 11:43:41;;;;;;;14.20;2.80;;;;;;;;;;103873;1289;544976;-70
2024/04/08 11:47:18;;;;;;;10.30;2.20;;;;;;;;;;103727;1290;544824;-70
2024/04/08 11:50:57;;;;;;;20.20;2.70;;;;;;;;;;103832;1292;544972;-71
2024/04/08 11:54:35;;;;;;;10.40;2.30;;;;;;;;;;104586;1284;545135;-71
2024/04/08 11:58:12;;;;;;;6.40;1.60;;;;;;;;;;103501;1298;545749;-72
2024/04/08 12:01:50;;;;;;;7.00;2.00;;;;;;;;;;103402;1292;545507;-69
2024/04/08 12:05:27;;;;;;;10.10;2.40;;;;;;;;;;103710;1292;544993;-71
2024/04/08 12:09:05;;;;;;;10.10;2.60;;;;;;;;;;103624;1291;545418;-71
2024/04/08 12:12:41;;;;;;;12.80;2.50;;;;;;;;;;103537;1291;545594;-73
2024/04/08 12:16:19;;;;;;;9.30;1.90;;;;;;;;;;103979;1292;545473;-69
2024/04/08 12:19:57;;;;;;;12.20;2.20;;;;;;;;;;103584;1293;545154;-70
2024/04/08 12:23:35;;;;;;;8.50;2.40;;;;;;;;;;103850;1289;545038;-71
2024/04/08 12:27:12;;;;;;;12.90;2.80;;;;;;;;;;103862;1290;544978;-70
2024/04/08 12:30:49;;;;;;;8.70;2.50;;;;;;;;;;103933;1288;544740;-69
2024/04/08 12:34:27;;;;;;;11.90;2.50;;;;;;;;;;103842;1289;545561;-71
2024/04/08 12:38:08;;;;;;;11.80;3.00;;;;;;;;;;103733;1292;545484;-76
2024/04/08 12:41:42;;;;;;;7.30;2.30;;;;;;;;;;103743;1292;546008;-71
2024/04/08 12:45:20;;;;;;;8.10;1.90;;;;;;;;;;103693;1289;545185;-71
2024/04/08 12:48:57;;;;;;;7.60;2.30;;;;;;;;;;103692;1292;544990;-69
2024/04/08 12:52:35;;;;;;;7.30;1.90;;;;;;;;;;103707;1292;544596;-70
2024/04/08 12:56:11;;;;;;;8.20;2.00;;;;;;;;;;103740;1289;544936;-72
2024/04/08 12:59:49;;;;;;;6.10;2.10;;;;;;;;;;103667;1292;545190;-70
2024/04/08 13:03:26;;;;;;;6.80;1.80;;;;;;;;;;103778;1290;545026;-73
2024/04/08 13:07:05;;;;;;;9.30;2.20;;;;;;;;;;103758;1302;544866;-70
2024/04/08 13:10:42;;;;;;;11.20;2.00;;;;;;;;;;104421;1286;544943;-73
2024/04/08 13:14:19;;;;;;;9.70;2.40;;;;;;;;;;103585;1293;544804;-70
2024/04/08 13:17:57;;;;;;;7.60;2.30;;;;;;;;;;103769;1289;545305;-77
2024/04/08 13:21:31;;;;;;;12.40;2.20;;;;;;;;;;103821;1289;546182;-73
2024/04/08 13:25:08;;;;;;;6.40;2.30;;;;;;;;;;103742;1292;545063;-78
2024/04/08 13:28:46;;;;;;;5.90;1.60;;;;;;;;;;103874;1289;545241;-71
2024/04/08 13:32:27;;;;;;;5.90;2.00;;;;;;;;;;103537;1295;544946;-69
2024/04/08 13:36:09;;;;;;;6.30;2.10;;;;;;;;;;103808;1290;545044;-75
2024/04/08 13:39:42;;;;;;;5.60;2.00;;;;;;;;;;103749;1291;545240;-69
2024/04/08 13:43:19;;;;;;;6.80;1.80;;;;;;;;;;103825;1295;544865;-76
2024/04/08 13:46:57;;;;;;;5.60;2.10;;;;;;;;;;103917;1288;545513;-70
2024/04/08 13:50:34;;;;;;;6.10;2.20;;;;;;;;;;104475;1289;545373;-72
2024/04/08 13:54:07;;;;;;;5.20;2.00;;;;;;;;;;103782;1289;545515;-69
2024/04/08 13:57:49;;;;;;;5.60;2.30;;;;;;;;;;103711;1303;545080;-68
2024/04/08 14:01:22;;;;;;;6.10;1.90;;;;;;;;;;103717;1295;545598;-71
2024/04/08 14:05:04;;;;;;;6.10;1.70;;;;;;;;;;104078;1292;544990;-73
2024/04/08 14:08:41;;;;;;;6.00;2.20;;;;;;;;;;103743;1289;544951;-71
2024/04/08 14:12:19;;;;;;;10.60;2.40;;;;;;;;;;103734;1292;546009;-70
2024/04/08 14:15:56;;;;;;;5.60;2.30;;;;;;;;;;103801;1289;544824;-72
2024/04/08 14:19:34;;;;;;;7.20;2.00;;;;;;;;;;103775;1291;546346;-70
2024/04/08 14:23:11;;;;;;;7.00;2.50;;;;;;;;;;103637;1292;544799;-71
2024/04/08 14:26:49;;;;;;;8.20;2.40;;;;;;;;;;103815;1295;544838;-68
2024/04/08 14:30:26;;;;;;;8.00;2.30;;;;;;;;;;103839;1289;544790;-70
2024/04/08 14:34:04;;;;;;;6.90;2.30;;;;;;;;;;103735;1290;545662;-69
2024/04/08 14:37:43;;;;;;;7.80;2.10;;;;;;;;;;103817;1290;544824;-71
2024/04/08 14:41:19;;;;;;;7.20;2.10;;;;;;;;;;103605;1293;544710;-72
2024/04/08 14:44:56;;;;;;;9.90;2.60;;;;;;;;;;104452;1289;544931;-70
2024/04/08 14:48:30;;;;;;;7.60;2.60;;;;;;;;;;103741;1295;545461;-69
2024/04/08 14:52:12;;;;;;;9.50;2.50;;;;;;;;;;103784;1301;545107;-73
2024/04/08 14:55:48;;;;;;;7.90;2.20;;;;;;;;;;103601;1291;545070;-68
2024/04/08 14:59:27;;;;;;;8.50;2.50;;;;;;;;;;103322;1295;545013;-72
2024/04/08 15:03:05;;;;;;;7.30;2.00;;;;;;;;;;103731;1289;545092;-74
2024/04/08 15:06:41;;;;;;;7.00;2.50;;;;;;;;;;103864;1289;546013;-71
2024/04/08 15:10:22;;;;;;;7.60;3.00;;;;;;;;;;103581;1291;544893;-75
2024/04/08 15:13:52;;;;;;;6.70;2.10;;;;;;;;;;104047;1291;544994;-71
2024/04/08 15:17:35;;;;;;;6.00;2.30;;;;;;;;;;103703;1289;545664;-71
2024/04/08 15:21:11;;;;;;;7.00;2.00;;;;;;;;;;103751;1289;545401;-70
2024/04/08 15:24:50;;;;;;;5.80;2.10;;;;;;;;;;103871;1289;545092;-71
2024/04/08 15:28:26;;;;;;;6.60;2.20;;;;;;;;;;103825;1289;544790;-72
2024/04/08 15:32:05;;;;;;;7.80;2.20;;;;;;;;;;103627;1289;545029;-69
2024/04/08 15:35:41;;;;;;;6.60;1.90;;;;;;;;;;103805;1291;545537;-68
2024/04/08 15:39:20;;;;;;;11.40;2.60;;;;;;;;;;104097;1299;545349;-70
2024/04/08 15:42:56;;;;;;;11.10;2.30;;;;;;;;;;104098;1289;545298;-70
2024/04/08 15:46:34;;;;;;;18.90;3.50;;;;;;;;;;103752;1290;544956;-70
2024/04/08 15:50:11;;;;;;;6.00;2.00;;;;;;;;;;103695;1290;545076;-69
2024/04/08 15:53:49;;;;;;;7.80;2.40;;;;;;;;;;103817;1289;545145;-69
2024/04/08 15:57:25;;;;;;;6.00;2.20;;;;;;;;;;103711;1291;545430;-70
2024/04/08 16:01:04;;;;;;;20.70;3.40;;;;;;;;;;103682;1294;545615;-70
2024/04/08 16:04:42;;;;;;;11.70;3.00;;;;;;;;;;104116;1289;545422;-69
2024/04/08 16:08:19;;;;;;;17.40;3.70;;;;;;;;;;103768;1289;545162;-71
2024/04/08 16:11:56;;;;;;;32.40;4.50;;;;;;;;;;103654;1292;545202;-70
2024/04/08 16:15:37;;;;;;;13.40;3.30;;;;;;;;;;103735;1289;545751;-73
2024/04/08 16:19:11;;;;;;;16.40;3.60;;;;;;;;;;103602;1291;545688;-70
2024/04/08 16:22:49;;;;;;;11.10;2.80;;;;;;;;;;104108;1288;544992;-71
2024/04/08 16:26:26;;;;;;;9.80;2.80;;;;;;;;;;103862;1302;544969;-71
2024/04/08 16:29:59;;;;;;;9.70;2.80;;;;;;;;;;103496;1295;545563;-70
2024/04/08 16:33:37;;;;;;;9.00;2.70;;;;;;;;;;103914;1289;544969;-71
2024/04/08 16:37:19;;;;;;;12.00;2.70;;;;;;;;;;103675;1291;545367;-70
2024/04/08 16:40:56;;;;;;;11.10;2.90;;;;;;;;;;104159;1288;544715;-78
2024/04/08 16:44:33;;;;;;;7.10;2.40;;;;;;;;;;103659;1294;545828;-70
2024/04/08 16:48:10;;;;;;;16.50;3.50;;;;;;;;;;104070;1291;544926;-70
2024/04/08 16:51:52;;;;;;;11.30;2.80;;;;;;;;;;103402;1295;545254;-68
2024/04/08 16:55:25;;;;;;;12.30;3.10;;;;;;;;;;103809;1292;545542;-74
2024/04/08 16:59:04;;;;;;;10.10;2.80;;;;;;;;;;103467;1292;545417;-69
2024/04/08 17:02:44;;;;;;;12.30;3.70;;;;;;;;;;103492;1292;545432;-69
2024/04/08 17:06:19;;;;;;;10.90;3.20;;;;;;;;;;103786;1293;544786;-71
2024/04/08 17:09:55;;;;;;;9.60;3.30;;;;;;;;;;103766;1289;545871;-74
2024/04/08 17:13:34;;;;;;;11.20;3.50;;;;;;;;;;103714;1292;544828;-71
2024/04/08 17:17:10;;;;;;;8.70;3.30;;;;;;;;;;103809;1292;544762;-72
2024/04/08 17:20:48;;;;;;;9.70;4.10;;;;;;;;;;103545;1291;546528;-70
2024/04/08 17:24:25;;;;;;;9.10;3.60;;;;;;;;;;103789;1292;544879;-72
2024/04/08 17:28:03;;;;;;;10.20;3.50;;;;;;;;;;103774;1292;545089;-76
2024/04/08 17:31:47;;;;;;;7.50;2.90;;;;;;;;;;103669;1289;545414;-79
2024/04/08 17:35:20;;;;;;;8.40;3.10;;;;;;;;;;104042;1289;544735;-75
2024/04/08 17:39:00;;;;;;;8.00;3.00;;;;;;;;;;103719;1295;544718;-68
2024/04/08 17:42:33;;;;;;;6.10;2.40;;;;;;;;;;103708;1292;545025;-71
2024/04/08 17:46:11;;;;;;;10.50;2.80;;;;;;;;;;104235;1286;544914;-72
2024/04/08 17:49:48;;;;;;;7.90;2.60;;;;;;;;;;103832;1292;545046;-75
2024/04/08 17:53:28;;;;;;;14.30;3.70;;;;;;;;;;103880;1289;544889;-74
2024/04/08 17:57:03;;;;;;;9.20;3.60;;;;;;;;;;103893;1289;544951;-76
2024/04/08 18:00:40;;;;;;;10.00;4.70;;;;;;;;;;103653;1291;545184;-71
2024/04/08 18:04:18;;;;;;;11.80;4.70;;;;;;;;;;103841;1291;545816;-73
2024/04/08 18:07:52;;;;;;;12.20;4.90;;;;;;;;;;103805;1294;545058;-71
2024/04/08 18:11:33;;;;;;;13.00;4.60;;;;;;;;;;103747;1291;545255;-72
2024/04/08 18:15:10;;;;;;;8.90;3.50;;;;;;;;;;103777;1292;544783;-79
2024/04/08 18:18:45;;;;;;;8.10;4.10;;;;;;;;;;103690;1291;545647;-77
2024/04/08 18:22:25;;;;;;;12.10;4.70;;;;;;;;;;103741;1290;545171;-73
2024/04/08 18:26:07;;;;;;;11.00;4.60;;;;;;;;;;103751;1292;544868;-71
2024/04/08 18:29:40;;;;;;;10.50;5.00;;;;;;;;;;103684;1292;545024;-77
2024/04/08 18:33:18;;;;;;;12.40;4.30;;;;;;;;;;104264;1282;545599;-72
2024/04/08 18:36:55;;;;;;;11.30;4.10;;;;;;;;;;103693;1291;545143;-75
2024/04/08 18:40:34;;;;;;;11.30;3.90;;;;;;;;;;104004;1290;544805;-72
2024/04/08 18:44:12;;;;;;;9.60;4.30;;;;;;;;;;103697;1291;544952;-78
2024/04/08 18:47:54;;;;;;;13.50;5.00;;;;;;;;;;103734;1289;547807;-79
2024/04/08 18:51:25;;;;;;;9.30;4.20;;;;;;;;;;104145;1292;546332;-71
2024/04/08 18:54:59;;;;;;;9.30;4.20;;;;;;;;;;103965;1290;544805;-73
2024/04/08 18:58:36;;;;;;;9.70;4.50;;;;;;;;;;103900;1290;544698;-72
2024/04/08 19:02:18;;;;;;;8.80;3.80;;;;;;;;;;103940;1292;545729;-75
2024/04/08 19:05:51;;;;;;;16.20;5.20;;;;;;;;;;103849;1291;544782;-72
2024/04/08 19:09:33;;;;;;;14.30;6.20;;;;;;;;;;103924;1295;545031;-74
2024/04/08 19:13:10;;;;;;;19.20;7.90;;;;;;;;;;103858;1295;544988;-73
2024/04/08 19:16:56;;;;;;;15.70;10.60;;;;;;;;;;103666;1289;545786;-80
2024/04/08 19:20:25;;;;;;;11.90;6.50;;;;;;;;;;103820;1292;545004;-72
2024/04/08 19:24:03;;;;;;;11.10;4.40;;;;;;;;;;103638;1291;545408;-76
2024/04/08 19:27:39;;;;;;;11.00;4.40;;;;;;;;;;103716;1291;545117;-72
2024/04/08 19:31:18;;;;;;;15.30;5.70;;;;;;;;;;103660;1292;545219;-75
2024/04/08 19:34:55;;;;;;;12.10;4.50;;;;;;;;;;103610;1298;544967;-71
2024/04/08 19:38:33;;;;;;;9.90;4.10;;;;;;;;;;103895;1292;547438;-76
2024/04/08 19:42:10;;;;;;;10.70;4.10;;;;;;;;;;103773;1295;545015;-72
2024/04/08 19:45:47;;;;;;;12.50;4.10;;;;;;;;;;105968;1288;544948;-70
2024/04/08 19:49:25;;;;;;;20.30;6.10;;;;;;;;;;104214;1291;545047;-74
2024/04/08 19:53:03;;;;;;;15.20;7.70;;;;;;;;;;103976;1289;544983;-71
2024/04/08 19:56:40;;;;;;;14.20;5.50;;;;;;;;;;103691;1295;545355;-73
2024/04/08 20:00:21;;;;;;;13.20;4.40;;;;;;;;;;103880;1302;544959;-71
2024/04/08 20:03:51;;;;;;;14.10;4.30;;;;;;;;;;104154;1289;545041;-72
2024/04/08 20:07:33;;;;;;;8.50;3.60;;;;;;;;;;103967;1289;545744;-71
2024/04/08 20:11:10;;;;;;;9.90;3.70;;;;;;;;;;103797;1291;544870;-72
2024/04/08 20:14:49;;;;;;;10.50;3.60;;;;;;;;;;103606;1291;548006;-75
2024/04/08 20:18:25;;;;;;;11.20;4.50;;;;;;;;;;103704;1294;547163;-72
2024/04/08 20:22:02;;;;;;;16.40;6.30;;;;;;;;;;104139;1294;545053;-77
2024/04/08 20:25:49;;;;;;;9.50;3.90;;;;;;;;;;103801;1289;544834;-72
2024/04/08 20:29:17;;;;;;;14.10;5.20;;;;;;;;;;103816;1290;545246;-72
2024/04/08 20:32:54;;;;;;;10.30;4.80;;;;;;;;;;103739;1291;545371;-72
2024/04/08 20:36:32;;;;;;;11.70;4.00;;;;;;;;;;103637;1291;545368;-71
2024/04/08 20:40:10;;;;;;;8.50;2.90;;;;;;;;;;104486;1285;544728;-73
2024/04/08 20:43:47;;;;;;;7.90;3.10;;;;;;;;;;103621;1295;545200;-76
2024/04/08 20:47:25;;;;;;;7.90;2.40;;;;;;;;;;103932;1292;545265;-72
2024/04/08 20:51:03;;;;;;;8.20;3.30;;;;;;;;;;103963;1289;545894;-73
2024/04/08 20:54:39;;;;;;;8.20;3.70;;;;;;;;;;103870;1292;544837;-71